Bornem, Belgium
Current Conditions -  °F | °C
As of 11:20 AM on Thursday 18 Dec 2014 (Local Time) from EBAW Reporting Station
Broken Clouds Broken Clouds  
Wind Chill: 54°   Ceiling: 800
Heat Index: 54°   Visibility: 4mi
Dew Point: 50°   Wind: 12mph
Humidity: 88%   Direction: 250°WSW
Pressure: 29.85"   Gusts: NA
Location:  51.1°N, 4.24°E
Report Text: EBAW 181020Z 25010KT 6000 SCT006 BKN008 12/10 Q1011 NOSIG
Loading
Personal Weather Stations






























Interactive Weather Map New forecast layout! Learn more

10-Day Weather Forecast

Advertisements
Track Severe Weather on mobile